Архив погоды в Костроме

Метеограмма Кострома
Понедельник, 15 Октября
Время местн. Темп Ветер Видим Явления Облачность нижн/средн/верх Атм. давл. Влжн Точка росы ВНГО R Сост. почвы Tg s
Напр Скр Прв ур.ст ур.м изм
15:00 +17.6° З 3 - 30 км - ясно 757 768 -0.2 60% +9.8° более 2.5 км - - - -
12:00 +16.7° З 3 - 30 км - ясно 757 768 +0.4 60% +8.9° более 2.5 км - - - -
09:00 +11.3° З 3 - 30 км - ясно 757 768 +0.5 86% +9° более 2.5 км - - - -
06:00 +10.8° З 4 - 50 км - переменная облачность 756 768 +0.5 87% +8.7° - - - - -
03:00 +11.8° З 4 - 50 км - облачно 756 767 +0.5 83% +9° - - - - -
00:00 +12.6° З 4 - 50 км - облачно 755 767 +0.5 81% +9.5° - - - - -
Воскресенье, 14 Октября
Время местн. Темп Ветер Видим Явления Облачность нижн/средн/верх Атм. давл. Влжн Точка росы ВНГО R Сост. почвы Tg s
Напр Скр Прв ур.ст ур.м изм
21:00 +12.7° З 4 - 50 км - облачно 755 766 0 84% +10.1° - - - - -
18:00 +11.7° З,Ю-З 4 - 50 км - облачно 755 766 -1.3 85% +9.2° более 2.5 км - - - -
15:00 +10.8° З,Ю-З 3 - 30 км дождь облачно 756 768 -0.9 90% +9.2° 600 м - - - -
12:00 +9.4° З,Ю-З 1 - 30 км небо без изменений {туман} облачно 757 769 -0.2 94% +8.5° 600 м - - - -
09:00 +7.7° Ю-З 1 - 1.5 км дымка {дождь, туман} облачно 757 769 +0.3 95% +6.9° 600 м - - - -
06:00 +6.7° Ю 2 - 1.8 км дымка {дождь} облачно 757 769 -0.5 95% +5.9° 600 м - - - -
03:00 +6.6° Ю 1 - 2.1 км дымка {дождь} облачно 757 769 -0.1 94% +5.7° 600 м - - - -
00:00 +6.7° штиль 0 - 50 км слабый непрерывный дождь облачно 757 769 -0.2 93% +5.7° 600 м - - - -
Суббота, 13 Октября
Время местн. Темп Ветер Видим Явления Облачность нижн/средн/верх Атм. давл. Влжн Точка росы ВНГО R Сост. почвы Tg s
Напр Скр Прв ур.ст ур.м изм
21:00 +6.8° штиль 0 - 50 км - облачно 758 769 -0.3 93% +5.7° 600 м - - - -
18:00 +7.6° С 1 - 50 км - облачно 758 770 +0.1 85% +5.3° 600 м - - - -
15:00 +8.3° С-З 2 - 30 км небо без изменений {дождь} облачно 758 770 -0.7 81% +5.3° 600 м - - - -
12:00 +7.6° С-З 1 - 30 км небо без изменений {дождь} облачно 759 770 -0.2 85% +5.3° 600 м - - - -
09:00 +7.4° З 1 - 16 км слабый непрерывный дождь облачно 759 770 +0.3 93% +6.3° 600 м - - - -
06:00 +7.8° штиль 0 - 50 км - облачно 758 770 -0.2 84% +5.2° - - Влажная (без луж) - -
03:00 +8.2° С 1 - 50 км - облачно 759 770 +0.2 85% +5.9° - - - - -
00:00 +10.2° С 3 - 50 км - облачно 758 770 +0.4 75% +6° более 2.5 км - - - -
Пятница, 12 Октября
Время местн. Темп Ветер Видим Явления Облачность нижн/средн/верх Атм. давл. Влжн Точка росы ВНГО R Сост. почвы Tg s
Напр Скр Прв ур.ст ур.м изм
21:00 +11.5° З,С-З 2 - 50 км - облачно 758 770 -0.6 70% +6.2° - - - - -
18:00 +12.5° З 2 - 30 км - облачно 759 770 -0.7 64% +5.9° - - - - -
15:00 +12.8° З 3 - 30 км небо без изменений {дождь} облачно 759 771 -1.8 59% +4.9° - - - - -
12:00 +9° З 3 - 30 км дождь облачно 761 773 -1.4 75% +4.9° - - - - -